sensor_id;sensor_type;location;lat;lon;timestamp;pressure;altitude;pressure_sealevel;temperature;humidity
83843;BME280;73869;52.336;21.182;2023-12-20T00:01:56;99813.91;;;5.84;94.17
83843;BME280;73869;52.336;21.182;2023-12-20T00:04:22;99816.59;;;5.84;93.77
83843;BME280;73869;52.336;21.182;2023-12-20T00:06:49;99801.59;;;5.75;93.92
83843;BME280;73869;52.336;21.182;2023-12-20T00:09:16;99811.53;;;5.81;94.15
83843;BME280;73869;52.336;21.182;2023-12-20T00:11:43;99815.13;;;5.88;93.89
83843;BME280;73869;52.336;21.182;2023-12-20T00:14:09;99813.47;;;5.87;94.12
83843;BME280;73869;52.336;21.182;2023-12-20T00:16:36;99807.47;;;5.92;93.62
83843;BME280;73869;52.336;21.182;2023-12-20T00:19:02;99804.13;;;5.83;93.98
83843;BME280;73869;52.336;21.182;2023-12-20T00:21:29;99806.63;;;5.85;94.04
83843;BME280;73869;52.336;21.182;2023-12-20T00:23:55;99805.59;;;5.86;93.71
83843;BME280;73869;52.336;21.182;2023-12-20T00:26:23;99801.25;;;5.91;93.28
83843;BME280;73869;52.336;21.182;2023-12-20T00:28:50;99798.97;;;5.88;93.59
83843;BME280;73869;52.336;21.182;2023-12-20T00:31:16;99797.91;;;5.83;93.48
83843;BME280;73869;52.336;21.182;2023-12-20T00:33:43;99803.13;;;5.91;93.20
83843;BME280;73869;52.336;21.182;2023-12-20T00:36:11;99787.75;;;5.85;94.06
83843;BME280;73869;52.336;21.182;2023-12-20T00:38:38;99791.91;;;5.87;93.38
83843;BME280;73869;52.336;21.182;2023-12-20T00:41:04;99773.22;;;5.79;94.10
83843;BME280;73869;52.336;21.182;2023-12-20T00:43:32;99786.34;;;5.95;93.02
83843;BME280;73869;52.336;21.182;2023-12-20T00:45:58;99776.16;;;5.84;93.81
83843;BME280;73869;52.336;21.182;2023-12-20T00:48:25;99780.31;;;5.87;93.99
83843;BME280;73869;52.336;21.182;2023-12-20T00:50:52;99771.16;;;5.88;93.67
83843;BME280;73869;52.336;21.182;2023-12-20T00:53:18;99776.34;;;5.83;94.35
83843;BME280;73869;52.336;21.182;2023-12-20T00:55:45;99778.03;;;5.90;93.30
83843;BME280;73869;52.336;21.182;2023-12-20T00:58:12;99769.09;;;5.90;93.04
83843;BME280;73869;52.336;21.182;2023-12-20T01:00:42;99770.78;;;5.91;93.65
83843;BME280;73869;52.336;21.182;2023-12-20T01:03:09;99770.59;;;5.92;93.78
83843;BME280;73869;52.336;21.182;2023-12-20T01:05:35;99748.75;;;5.81;93.59
83843;BME280;73869;52.336;21.182;2023-12-20T01:08:02;99770.56;;;5.86;93.71
83843;BME280;73869;52.336;21.182;2023-12-20T01:10:29;99767.63;;;5.81;93.76
83843;BME280;73869;52.336;21.182;2023-12-20T01:12:55;99764.53;;;5.84;93.55
83843;BME280;73869;52.336;21.182;2023-12-20T01:15:22;99770.16;;;5.95;94.00
83843;BME280;73869;52.336;21.182;2023-12-20T01:17:50;99763.94;;;5.88;94.04
83843;BME280;73869;52.336;21.182;2023-12-20T01:20:16;99755.22;;;5.86;93.38
83843;BME280;73869;52.336;21.182;2023-12-20T01:22:45;99760.81;;;5.91;93.73
83843;BME280;73869;52.336;21.182;2023-12-20T01:25:12;99765.41;;;5.91;93.35
83843;BME280;73869;52.336;21.182;2023-12-20T01:27:38;99762.91;;;5.89;93.23
83843;BME280;73869;52.336;21.182;2023-12-20T01:30:06;99759.59;;;5.87;94.10
83843;BME280;73869;52.336;21.182;2023-12-20T01:32:33;99751.09;;;5.90;93.86
83843;BME280;73869;52.336;21.182;2023-12-20T01:35:01;99747.13;;;5.86;93.77
83843;BME280;73869;52.336;21.182;2023-12-20T01:37:27;99743.38;;;5.81;94.34
83843;BME280;73869;52.336;21.182;2023-12-20T01:39:54;99751.72;;;5.92;93.96
83843;BME280;73869;52.336;21.182;2023-12-20T01:42:21;99745.06;;;5.88;93.44
83843;BME280;73869;52.336;21.182;2023-12-20T01:44:48;99743.22;;;5.95;93.36
83843;BME280;73869;52.336;21.182;2023-12-20T01:47:15;99753.78;;;5.97;93.11
83843;BME280;73869;52.336;21.182;2023-12-20T01:49:41;99739.25;;;5.85;93.98
83843;BME280;73869;52.336;21.182;2023-12-20T01:52:09;99738.84;;;5.88;93.62
83843;BME280;73869;52.336;21.182;2023-12-20T01:54:37;99743.63;;;5.92;94.11
83843;BME280;73869;52.336;21.182;2023-12-20T01:57:04;99744.44;;;5.86;93.63
83843;BME280;73869;52.336;21.182;2023-12-20T01:59:31;99745.28;;;5.93;94.04
83843;BME280;73869;52.336;21.182;2023-12-20T02:02:03;99732.84;;;5.92;93.36
83843;BME280;73869;52.336;21.182;2023-12-20T02:04:30;99731.81;;;5.93;93.26
83843;BME280;73869;52.336;21.182;2023-12-20T02:06:57;99735.75;;;5.91;94.13
83843;BME280;73869;52.336;21.182;2023-12-20T02:09:26;99739.25;;;5.91;93.27
83843;BME280;73869;52.336;21.182;2023-12-20T02:11:54;99719.53;;;5.78;93.04
83843;BME280;73869;52.336;21.182;2023-12-20T02:14:20;99734.72;;;5.92;93.56
83843;BME280;73869;52.336;21.182;2023-12-20T02:16:47;99723.69;;;5.80;94.37
83843;BME280;73869;52.336;21.182;2023-12-20T02:19:17;99723.09;;;5.85;93.90
83843;BME280;73869;52.336;21.182;2023-12-20T02:21:45;99727.03;;;5.82;93.48
83843;BME280;73869;52.336;21.182;2023-12-20T02:24:11;99725.56;;;5.86;93.78
83843;BME280;73869;52.336;21.182;2023-12-20T02:26:38;99699.84;;;5.71;94.08
83843;BME280;73869;52.336;21.182;2023-12-20T02:29:04;99721.88;;;5.94;93.77
83843;BME280;73869;52.336;21.182;2023-12-20T02:31:31;99727.84;;;5.83;94.20
83843;BME280;73869;52.336;21.182;2023-12-20T02:33:57;99718.75;;;5.90;93.35
83843;BME280;73869;52.336;21.182;2023-12-20T02:36:24;99710.25;;;5.87;93.78
83843;BME280;73869;52.336;21.182;2023-12-20T02:38:52;99710.03;;;5.88;93.12
83843;BME280;73869;52.336;21.182;2023-12-20T02:41:19;99685.94;;;5.74;93.86
83843;BME280;73869;52.336;21.182;2023-12-20T02:43:45;99701.53;;;5.85;94.36
83843;BME280;73869;52.336;21.182;2023-12-20T02:46:13;99673.91;;;5.70;93.29
83843;BME280;73869;52.336;21.182;2023-12-20T02:48:42;99679.16;;;5.84;93.37
83843;BME280;73869;52.336;21.182;2023-12-20T02:51:08;99683.72;;;5.84;94.09
83843;BME280;73869;52.336;21.182;2023-12-20T02:53:35;99693.19;;;5.80;93.69
83843;BME280;73869;52.336;21.182;2023-12-20T02:56:03;99691.38;;;5.87;93.79
83843;BME280;73869;52.336;21.182;2023-12-20T02:58:30;99688.06;;;5.91;93.89
83843;BME280;73869;52.336;21.182;2023-12-20T03:00:57;99686.19;;;5.85;93.51
83843;BME280;73869;52.336;21.182;2023-12-20T03:03:23;99680.78;;;5.79;93.70
83843;BME280;73869;52.336;21.182;2023-12-20T03:05:50;99678.28;;;5.77;94.14
83843;BME280;73869;52.336;21.182;2023-12-20T03:08:17;99685.53;;;5.77;93.91
83843;BME280;73869;52.336;21.182;2023-12-20T03:10:43;99673.31;;;5.81;94.15
83843;BME280;73869;52.336;21.182;2023-12-20T03:13:11;99673.53;;;5.79;93.40
83843;BME280;73869;52.336;21.182;2023-12-20T03:15:37;99678.50;;;5.76;94.46
83843;BME280;73869;52.336;21.182;2023-12-20T03:18:04;99681.22;;;5.82;94.00
83843;BME280;73869;52.336;21.182;2023-12-20T03:20:30;99679.16;;;5.91;92.91
83843;BME280;73869;52.336;21.182;2023-12-20T03:22:59;99675.22;;;5.87;93.42
83843;BME280;73869;52.336;21.182;2023-12-20T03:25:26;99661.53;;;5.88;92.73
83843;BME280;73869;52.336;21.182;2023-12-20T03:27:53;99670.84;;;5.79;93.69
83843;BME280;73869;52.336;21.182;2023-12-20T03:30:20;99690.97;;;5.83;94.03
83843;BME280;73869;52.336;21.182;2023-12-20T03:32:47;99699.88;;;5.90;93.40
83843;BME280;73869;52.336;21.182;2023-12-20T03:35:14;99673.53;;;5.79;94.02
83843;BME280;73869;52.336;21.182;2023-12-20T03:37:40;99689.94;;;5.84;93.40
83843;BME280;73869;52.336;21.182;2023-12-20T03:40:07;99672.09;;;5.83;93.66
83843;BME280;73869;52.336;21.182;2023-12-20T03:42:34;99670.19;;;5.77;94.69
83843;BME280;73869;52.336;21.182;2023-12-20T03:45:00;99674.13;;;5.75;93.97
83843;BME280;73869;52.336;21.182;2023-12-20T03:47:28;99659.44;;;5.77;94.51
83843;BME280;73869;52.336;21.182;2023-12-20T03:49:55;99672.47;;;5.74;94.67
83843;BME280;73869;52.336;21.182;2023-12-20T03:52:21;99667.94;;;5.68;94.49
83843;BME280;73869;52.336;21.182;2023-12-20T03:54:48;99680.56;;;5.74;94.32
83843;BME280;73869;52.336;21.182;2023-12-20T03:57:14;99672.69;;;5.79;94.48
83843;BME280;73869;52.336;21.182;2023-12-20T03:59:41;99671.03;;;5.78;93.82
83843;BME280;73869;52.336;21.182;2023-12-20T04:02:07;99677.25;;;5.78;94.40
83843;BME280;73869;52.336;21.182;2023-12-20T04:04:35;99668.94;;;5.80;94.00
83843;BME280;73869;52.336;21.182;2023-12-20T04:07:02;99668.34;;;5.78;94.01
83843;BME280;73869;52.336;21.182;2023-12-20T04:09:28;99663.81;;;5.85;93.98
83843;BME280;73869;52.336;21.182;2023-12-20T04:11:55;99661.94;;;5.92;93.83
83843;BME280;73869;52.336;21.182;2023-12-20T04:14:21;99672.09;;;5.83;94.33
83843;BME280;73869;52.336;21.182;2023-12-20T04:16:48;99670.66;;;5.87;93.71
83843;BME280;73869;52.336;21.182;2023-12-20T04:19:14;99661.28;;;5.70;94.43
83843;BME280;73869;52.336;21.182;2023-12-20T04:21:43;99664.22;;;5.88;93.42
83843;BME280;73869;52.336;21.182;2023-12-20T04:24:09;99656.53;;;5.79;93.56
83843;BME280;73869;52.336;21.182;2023-12-20T04:26:36;99671.88;;;5.85;94.08
83843;BME280;73869;52.336;21.182;2023-12-20T04:29:02;99669.16;;;5.78;93.89
83843;BME280;73869;52.336;21.182;2023-12-20T04:31:29;99664.59;;;5.79;94.22
83843;BME280;73869;52.336;21.182;2023-12-20T04:33:55;99658.41;;;5.91;93.26
83843;BME280;73869;52.336;21.182;2023-12-20T04:36:22;99663.00;;;5.84;93.46
83843;BME280;73869;52.336;21.182;2023-12-20T04:38:51;99661.06;;;5.78;94.42
83843;BME280;73869;52.336;21.182;2023-12-20T04:41:18;99660.47;;;5.83;94.07
83843;BME280;73869;52.336;21.182;2023-12-20T04:43:44;99662.56;;;5.87;94.28
83843;BME280;73869;52.336;21.182;2023-12-20T04:46:11;99674.97;;;5.82;94.00
83843;BME280;73869;52.336;21.182;2023-12-20T04:48:37;99672.09;;;5.83;94.31
83843;BME280;73869;52.336;21.182;2023-12-20T04:51:04;99678.72;;;5.81;93.81
83843;BME280;73869;52.336;21.182;2023-12-20T04:53:31;99676.00;;;5.81;93.43
83843;BME280;73869;52.336;21.182;2023-12-20T04:55:59;99673.78;;;5.84;94.32
83843;BME280;73869;52.336;21.182;2023-12-20T04:58:25;99670.63;;;5.81;93.41
83843;BME280;73869;52.336;21.182;2023-12-20T05:00:52;99664.41;;;5.80;93.64
83843;BME280;73869;52.336;21.182;2023-12-20T05:03:18;99672.47;;;5.74;93.77
83843;BME280;73869;52.336;21.182;2023-12-20T05:05:45;99667.13;;;5.87;93.82
83843;BME280;73869;52.336;21.182;2023-12-20T05:08:11;99662.75;;;5.73;94.48
83843;BME280;73869;52.336;21.182;2023-12-20T05:10:38;99656.75;;;5.84;93.48
83843;BME280;73869;52.336;21.182;2023-12-20T05:13:07;99651.97;;;5.79;94.08
83843;BME280;73869;52.336;21.182;2023-12-20T05:15:34;99646.97;;;5.76;93.89
83843;BME280;73869;52.336;21.182;2023-12-20T05:18:00;99649.88;;;5.75;93.74
83843;BME280;73869;52.336;21.182;2023-12-20T05:20:27;99645.56;;;5.87;93.66
83843;BME280;73869;52.336;21.182;2023-12-20T05:22:53;99642.22;;;5.72;93.79
83843;BME280;73869;52.336;21.182;2023-12-20T05:25:20;99636.19;;;5.70;93.93
83843;BME280;73869;52.336;21.182;2023-12-20T05:27:47;99646.38;;;5.74;93.55
83843;BME280;73869;52.336;21.182;2023-12-20T05:30:15;99644.09;;;5.71;94.31
83843;BME280;73869;52.336;21.182;2023-12-20T05:32:42;99633.50;;;5.63;93.60
83843;BME280;73869;52.336;21.182;2023-12-20T05:35:09;99639.53;;;5.72;94.23
83843;BME280;73869;52.336;21.182;2023-12-20T05:37:35;99644.28;;;5.70;94.19
83843;BME280;73869;52.336;21.182;2023-12-20T05:40:02;99640.97;;;5.68;94.06
83843;BME280;73869;52.336;21.182;2023-12-20T05:42:29;99643.69;;;5.68;94.51
83843;BME280;73869;52.336;21.182;2023-12-20T05:44:56;99631.22;;;5.73;93.58
83843;BME280;73869;52.336;21.182;2023-12-20T05:47:23;99642.22;;;5.65;93.42
83843;BME280;73869;52.336;21.182;2023-12-20T05:49:50;99636.81;;;5.59;94.30
83843;BME280;73869;52.336;21.182;2023-12-20T05:52:16;99631.84;;;5.62;93.87
83843;BME280;73869;52.336;21.182;2023-12-20T05:54:43;99639.94;;;5.62;93.91
83843;BME280;73869;52.336;21.182;2023-12-20T05:57:09;99636.41;;;5.68;93.65
83843;BME280;73869;52.336;21.182;2023-12-20T05:59:36;99633.31;;;5.65;93.96
83843;BME280;73869;52.336;21.182;2023-12-20T06:02:03;99643.06;;;5.72;93.61
83843;BME280;73869;52.336;21.182;2023-12-20T06:04:31;99634.34;;;5.70;94.06
83843;BME280;73869;52.336;21.182;2023-12-20T06:06:58;99627.94;;;5.65;93.40
83843;BME280;73869;52.336;21.182;2023-12-20T06:09:24;99635.19;;;5.64;93.76
83843;BME280;73869;52.336;21.182;2023-12-20T06:11:51;99642.63;;;5.62;93.69
83843;BME280;73869;52.336;21.182;2023-12-20T06:14:17;99636.19;;;5.57;93.85
83843;BME280;73869;52.336;21.182;2023-12-20T06:16:45;99637.03;;;5.57;93.87
83843;BME280;73869;52.336;21.182;2023-12-20T06:19:11;99645.53;;;5.61;93.81
83843;BME280;73869;52.336;21.182;2023-12-20T06:21:39;99644.28;;;5.57;94.87
83843;BME280;73869;52.336;21.182;2023-12-20T06:24:06;99649.66;;;5.63;93.84
83843;BME280;73869;52.336;21.182;2023-12-20T06:26:32;99639.72;;;5.64;94.40
83843;BME280;73869;52.336;21.182;2023-12-20T06:28:59;99640.16;;;5.61;94.61
83843;BME280;73869;52.336;21.182;2023-12-20T06:31:25;99642.84;;;5.61;93.57
83843;BME280;73869;52.336;21.182;2023-12-20T06:33:52;99643.03;;;5.59;93.95
83843;BME280;73869;52.336;21.182;2023-12-20T06:36:22;99645.97;;;5.71;93.57
83843;BME280;73869;52.336;21.182;2023-12-20T06:38:50;99649.28;;;5.66;93.82
83843;BME280;73869;52.336;21.182;2023-12-20T06:41:17;99649.06;;;5.74;93.07
83843;BME280;73869;52.336;21.182;2023-12-20T06:43:43;99640.78;;;5.63;93.49
83843;BME280;73869;52.336;21.182;2023-12-20T06:46:10;99647.19;;;5.68;93.92
83843;BME280;73869;52.336;21.182;2023-12-20T06:48:38;99647.19;;;5.62;94.50
83843;BME280;73869;52.336;21.182;2023-12-20T06:51:05;99649.66;;;5.63;94.08
83843;BME280;73869;52.336;21.182;2023-12-20T06:53:32;99656.72;;;5.64;93.27
83843;BME280;73869;52.336;21.182;2023-12-20T06:56:00;99653.81;;;5.59;93.65
83843;BME280;73869;52.336;21.182;2023-12-20T06:58:26;99653.00;;;5.65;93.50
83843;BME280;73869;52.336;21.182;2023-12-20T07:00:53;99649.66;;;5.63;93.38
83843;BME280;73869;52.336;21.182;2023-12-20T07:03:19;99649.66;;;5.70;93.32
83843;BME280;73869;52.336;21.182;2023-12-20T07:05:46;99628.94;;;5.57;93.27
83843;BME280;73869;52.336;21.182;2023-12-20T07:08:12;99646.38;;;5.68;93.45
83843;BME280;73869;52.336;21.182;2023-12-20T07:10:41;99650.72;;;5.62;93.84
83843;BME280;73869;52.336;21.182;2023-12-20T07:13:09;99646.78;;;5.71;94.05
83843;BME280;73869;52.336;21.182;2023-12-20T07:15:35;99643.69;;;5.68;94.38
83843;BME280;73869;52.336;21.182;2023-12-20T07:18:02;99655.69;;;5.65;94.50
83843;BME280;73869;52.336;21.182;2023-12-20T07:20:30;99645.94;;;5.64;94.23
83843;BME280;73869;52.336;21.182;2023-12-20T07:22:57;99653.41;;;5.69;94.10
83843;BME280;73869;52.336;21.182;2023-12-20T07:25:23;99644.69;;;5.67;93.36
83843;BME280;73869;52.336;21.182;2023-12-20T07:27:50;99649.28;;;5.66;94.23
83843;BME280;73869;52.336;21.182;2023-12-20T07:30:18;99645.31;;;5.69;93.81
83843;BME280;73869;52.336;21.182;2023-12-20T07:32:44;99650.50;;;5.70;93.49
83843;BME280;73869;52.336;21.182;2023-12-20T07:35:10;99658.38;;;5.72;93.81
83843;BME280;73869;52.336;21.182;2023-12-20T07:37:37;99655.88;;;5.64;93.74
83843;BME280;73869;52.336;21.182;2023-12-20T07:40:05;99651.13;;;5.66;93.69
83843;BME280;73869;52.336;21.182;2023-12-20T07:42:31;99653.41;;;5.62;93.77
83843;BME280;73869;52.336;21.182;2023-12-20T07:44:58;99651.97;;;5.60;93.71
83843;BME280;73869;52.336;21.182;2023-12-20T07:47:26;99655.88;;;5.70;94.46
83843;BME280;73869;52.336;21.182;2023-12-20T07:49:52;99653.41;;;5.75;94.15
83843;BME280;73869;52.336;21.182;2023-12-20T07:52:19;99652.78;;;5.67;94.46
83843;BME280;73869;52.336;21.182;2023-12-20T07:54:47;99654.03;;;5.77;93.93
83843;BME280;73869;52.336;21.182;2023-12-20T07:57:13;99651.97;;;5.73;94.49
83843;BME280;73869;52.336;21.182;2023-12-20T07:59:40;99645.97;;;5.71;93.67
83843;BME280;73869;52.336;21.182;2023-12-20T08:02:06;99653.63;;;5.74;93.52
83843;BME280;73869;52.336;21.182;2023-12-20T08:04:34;99645.31;;;5.82;93.21
83843;BME280;73869;52.336;21.182;2023-12-20T08:07:01;99637.03;;;5.77;93.27
83843;BME280;73869;52.336;21.182;2023-12-20T08:09:27;99644.91;;;5.72;94.65
83843;BME280;73869;52.336;21.182;2023-12-20T08:11:54;99641.19;;;5.73;94.34
83843;BME280;73869;52.336;21.182;2023-12-20T08:14:21;99641.59;;;5.76;94.13
83843;BME280;73869;52.336;21.182;2023-12-20T08:16:47;99639.94;;;5.82;93.88
83843;BME280;73869;52.336;21.182;2023-12-20T08:19:53;99641.63;;;5.83;93.65
83843;BME280;73869;52.336;21.182;2023-12-20T08:22:19;99646.19;;;5.82;93.81
83843;BME280;73869;52.336;21.182;2023-12-20T08:24:46;99643.50;;;5.82;93.33
83843;BME280;73869;52.336;21.182;2023-12-20T08:27:13;99644.13;;;5.84;93.61
83843;BME280;73869;52.336;21.182;2023-12-20T08:29:54;99616.75;;;5.68;94.42
83843;BME280;73869;52.336;21.182;2023-12-20T08:36:44;99623.34;;;5.78;94.20
83843;BME280;73869;52.336;21.182;2023-12-20T08:39:19;99631.47;;;5.85;93.87
83843;BME280;73869;52.336;21.182;2023-12-20T08:41:49;99629.19;;;5.88;93.41
83843;BME280;73869;52.336;21.182;2023-12-20T08:44:15;99632.94;;;5.87;93.68
83843;BME280;73869;52.336;21.182;2023-12-20T08:46:42;99617.34;;;5.76;93.58
83843;BME280;73869;52.336;21.182;2023-12-20T08:49:09;99629.59;;;5.85;93.65
83843;BME280;73869;52.336;21.182;2023-12-20T08:55:55;99628.97;;;5.90;93.87
83843;BME280;73869;52.336;21.182;2023-12-20T08:58:41;99627.97;;;5.91;93.42
83843;BME280;73869;52.336;21.182;2023-12-20T09:01:08;99631.88;;;5.88;94.15
83843;BME280;73869;52.336;21.182;2023-12-20T09:03:52;99624.84;;;5.87;94.27
83843;BME280;73869;52.336;21.182;2023-12-20T09:06:19;99631.25;;;5.93;94.05
83843;BME280;73869;52.336;21.182;2023-12-20T09:08:45;99611.16;;;5.82;93.93
83843;BME280;73869;52.336;21.182;2023-12-20T09:11:13;99621.09;;;5.88;94.34
83843;BME280;73869;52.336;21.182;2023-12-20T09:13:40;99619.03;;;5.97;93.92
83843;BME280;73869;52.336;21.182;2023-12-20T09:16:08;99601.41;;;5.88;93.13
83843;BME280;73869;52.336;21.182;2023-12-20T09:18:38;99607.41;;;5.96;93.60
83843;BME280;73869;52.336;21.182;2023-12-20T09:21:04;99602.66;;;5.92;93.31
83843;BME280;73869;52.336;21.182;2023-12-20T09:23:31;99600.78;;;5.92;93.69
83843;BME280;73869;52.336;21.182;2023-12-20T09:25:57;99604.50;;;5.91;94.16
83843;BME280;73869;52.336;21.182;2023-12-20T09:28:25;99602.03;;;5.90;93.65
83843;BME280;73869;52.336;21.182;2023-12-20T09:30:52;99602.03;;;5.90;93.27
83843;BME280;73869;52.336;21.182;2023-12-20T09:33:18;99597.06;;;5.93;93.33
83843;BME280;73869;52.336;21.182;2023-12-20T09:35:45;99584.19;;;5.95;93.75
83843;BME280;73869;52.336;21.182;2023-12-20T09:38:12;99581.91;;;5.99;93.55
83843;BME280;73869;52.336;21.182;2023-12-20T09:40:41;99582.72;;;5.99;93.12
83843;BME280;73869;52.336;21.182;2023-12-20T09:43:11;99583.16;;;5.96;93.99
83843;BME280;73869;52.336;21.182;2023-12-20T09:45:41;99577.75;;;5.96;93.51
83843;BME280;73869;52.336;21.182;2023-12-20T09:48:10;99579.84;;;5.94;93.70
83843;BME280;73869;52.336;21.182;2023-12-20T09:50:37;99581.69;;;6.07;92.96
83843;BME280;73869;52.336;21.182;2023-12-20T09:53:04;99579.63;;;6.02;93.18
83843;BME280;73869;52.336;21.182;2023-12-20T09:55:31;99573.22;;;5.97;93.52
83843;BME280;73869;52.336;21.182;2023-12-20T09:57:59;99570.50;;;5.97;93.26
83843;BME280;73869;52.336;21.182;2023-12-20T10:00:26;99572.38;;;5.96;94.01
83843;BME280;73869;52.336;21.182;2023-12-20T10:02:57;99571.94;;;5.99;93.54
83843;BME280;73869;52.336;21.182;2023-12-20T10:05:26;99571.38;;;5.91;94.06
83843;BME280;73869;52.336;21.182;2023-12-20T10:07:53;99570.50;;;5.97;94.07
83843;BME280;73869;52.336;21.182;2023-12-20T10:10:20;99565.34;;;5.95;93.59
83843;BME280;73869;52.336;21.182;2023-12-20T10:13:02;99566.78;;;5.98;94.06
83843;BME280;73869;52.336;21.182;2023-12-20T10:15:29;99568.66;;;5.97;94.41
83843;BME280;73869;52.336;21.182;2023-12-20T10:17:57;99559.53;;;5.92;93.68
83843;BME280;73869;52.336;21.182;2023-12-20T10:20:24;99554.56;;;5.95;94.09
83843;BME280;73869;52.336;21.182;2023-12-20T10:22:51;99563.84;;;5.99;93.93
83843;BME280;73869;52.336;21.182;2023-12-20T10:25:19;99568.88;;;5.96;94.25
83843;BME280;73869;52.336;21.182;2023-12-20T10:27:45;99558.28;;;5.94;93.32
83843;BME280;73869;52.336;21.182;2023-12-20T10:30:13;99557.25;;;5.89;93.35
83843;BME280;73869;52.336;21.182;2023-12-20T10:32:40;99555.59;;;5.88;93.50
83843;BME280;73869;52.336;21.182;2023-12-20T10:35:08;99553.94;;;5.93;93.65
83843;BME280;73869;52.336;21.182;2023-12-20T10:37:35;99551.22;;;6.00;93.10
83843;BME280;73869;52.336;21.182;2023-12-20T10:40:03;99543.78;;;5.95;93.18
83843;BME280;73869;52.336;21.182;2023-12-20T10:42:31;99546.25;;;5.97;93.01
83843;BME280;73869;52.336;21.182;2023-12-20T10:44:59;99529.88;;;5.92;92.83
83843;BME280;73869;52.336;21.182;2023-12-20T10:47:26;99543.38;;;5.92;94.03
83843;BME280;73869;52.336;21.182;2023-12-20T10:49:54;99554.34;;;5.97;93.49
83843;BME280;73869;52.336;21.182;2023-12-20T10:52:22;99556.41;;;5.95;93.03
83843;BME280;73869;52.336;21.182;2023-12-20T10:54:49;99554.78;;;5.94;93.88
83843;BME280;73869;52.336;21.182;2023-12-20T10:57:18;99552.47;;;6.04;93.44
83843;BME280;73869;52.336;21.182;2023-12-20T10:59:45;99546.03;;;5.98;93.36
83843;BME280;73869;52.336;21.182;2023-12-20T11:02:13;99541.09;;;5.95;93.57
83843;BME280;73869;52.336;21.182;2023-12-20T11:04:49;99539.22;;;5.96;93.54
83843;BME280;73869;52.336;21.182;2023-12-20T11:07:19;99535.47;;;5.97;94.18
83843;BME280;73869;52.336;21.182;2023-12-20T11:09:57;99531.13;;;5.96;93.33
83843;BME280;73869;52.336;21.182;2023-12-20T11:12:33;99531.53;;;5.93;94.17
83843;BME280;73869;52.336;21.182;2023-12-20T11:15:02;99511.88;;;5.86;92.99
83843;BME280;73869;52.336;21.182;2023-12-20T11:17:31;99520.97;;;5.91;93.53
83843;BME280;73869;52.336;21.182;2023-12-20T11:20:06;99510.19;;;5.91;93.30
83843;BME280;73869;52.336;21.182;2023-12-20T11:22:34;99508.34;;;5.92;93.26
83843;BME280;73869;52.336;21.182;2023-12-20T11:25:05;99496.53;;;5.86;93.34
83843;BME280;73869;52.336;21.182;2023-12-20T11:27:33;99493.41;;;5.96;93.54
83843;BME280;73869;52.336;21.182;2023-12-20T11:30:02;99500.22;;;5.98;92.84
83843;BME280;73869;52.336;21.182;2023-12-20T11:32:31;99496.50;;;5.93;93.40
83843;BME280;73869;52.336;21.182;2023-12-20T11:35:00;99490.31;;;5.92;93.00
83843;BME280;73869;52.336;21.182;2023-12-20T11:37:29;99495.88;;;5.97;93.54
83843;BME280;73869;52.336;21.182;2023-12-20T11:39:55;99487.41;;;5.94;93.13
83843;BME280;73869;52.336;21.182;2023-12-20T11:42:23;99492.56;;;5.95;93.36
83843;BME280;73869;52.336;21.182;2023-12-20T11:44:50;99473.09;;;5.87;92.92
83843;BME280;73869;52.336;21.182;2023-12-20T11:47:17;99481.59;;;5.90;93.01
83843;BME280;73869;52.336;21.182;2023-12-20T11:49:44;99484.06;;;5.98;93.35
83843;BME280;73869;52.336;21.182;2023-12-20T11:52:12;99476.16;;;6.03;92.74
83843;BME280;73869;52.336;21.182;2023-12-20T11:54:38;99475.09;;;6.04;92.55
83843;BME280;73869;52.336;21.182;2023-12-20T11:57:05;99471.63;;;5.97;93.61
83843;BME280;73869;52.336;21.182;2023-12-20T11:59:32;99470.16;;;5.95;93.06
83843;BME280;73869;52.336;21.182;2023-12-20T12:01:59;99465.84;;;5.94;94.04
83843;BME280;73869;52.336;21.182;2023-12-20T12:04:26;99469.94;;;6.03;93.00
83843;BME280;73869;52.336;21.182;2023-12-20T12:11:10;99428.75;;;5.83;93.02
83843;BME280;73869;52.336;21.182;2023-12-20T12:15:26;99440.31;;;5.96;92.47
83843;BME280;73869;52.336;21.182;2023-12-20T12:18:25;99422.34;;;5.84;92.66
83843;BME280;73869;52.336;21.182;2023-12-20T12:21:09;99455.00;;;6.07;92.30
83843;BME280;73869;52.336;21.182;2023-12-20T12:23:36;99447.16;;;5.99;92.64
83843;BME280;73869;52.336;21.182;2023-12-20T12:26:03;99430.41;;;5.90;92.67
83843;BME280;73869;52.336;21.182;2023-12-20T12:28:30;99434.72;;;5.91;93.58
83843;BME280;73869;52.336;21.182;2023-12-20T12:30:59;99430.81;;;5.87;92.39
83843;BME280;73869;52.336;21.182;2023-12-20T12:33:26;99432.88;;;5.92;92.28
83843;BME280;73869;52.336;21.182;2023-12-20T12:35:52;99428.94;;;5.88;92.35
83843;BME280;73869;52.336;21.182;2023-12-20T12:38:20;99435.81;;;5.84;92.58
83843;BME280;73869;52.336;21.182;2023-12-20T12:40:46;99430.63;;;5.82;93.40
83843;BME280;73869;52.336;21.182;2023-12-20T12:43:13;99436.63;;;5.78;92.75
83843;BME280;73869;52.336;21.182;2023-12-20T12:45:40;99430.03;;;5.67;93.45
83843;BME280;73869;52.336;21.182;2023-12-20T12:48:08;99438.31;;;5.72;93.36
83843;BME280;73869;52.336;21.182;2023-12-20T12:50:34;99437.25;;;5.73;93.13
83843;BME280;73869;52.336;21.182;2023-12-20T12:53:01;99414.91;;;5.66;92.47
83843;BME280;73869;52.336;21.182;2023-12-20T12:55:28;99424.00;;;5.72;93.08
83843;BME280;73869;52.336;21.182;2023-12-20T12:57:55;99427.09;;;5.75;91.31
83843;BME280;73869;52.336;21.182;2023-12-20T13:00:21;99428.75;;;5.76;92.28
83843;BME280;73869;52.336;21.182;2023-12-20T13:02:48;99431.03;;;5.79;90.64
83843;BME280;73869;52.336;21.182;2023-12-20T13:05:16;99428.78;;;5.63;93.17
83843;BME280;73869;52.336;21.182;2023-12-20T13:07:43;99430.25;;;5.66;92.31
83843;BME280;73869;52.336;21.182;2023-12-20T13:10:10;99428.38;;;5.66;92.93
83843;BME280;73869;52.336;21.182;2023-12-20T13:12:37;99430.03;;;5.67;91.43
83843;BME280;73869;52.336;21.182;2023-12-20T13:15:04;99424.88;;;5.59;92.39
83843;BME280;73869;52.336;21.182;2023-12-20T13:17:31;99426.09;;;5.57;91.35